Time;durP1;ratioP1;P1;durP2;ratioP2;P2;SDS_P1;SDS_P2;PMS_P1;PMS_P2;Temp;Humidity;BMP_temperature;BMP_pressure;BME280_temperature;BME280_humidity;BME280_pressure;Samples;Min_cycle;Max_cycle;Signal;HPM_P1;HPM_P2
2022/02/08 00:00:55;;;;;;;3.43;2.57;;;;;;;;;;5028753;28;20217;-66
2022/02/08 00:03:25;;;;;;;3.17;2.20;;;;;;;;;;5027276;28;20261;-66
2022/02/08 00:06:17;;;;;;;4.63;2.30;;;;;;;;;;5030752;28;20570;-66
2022/02/08 00:08:46;;;;;;;3.97;2.20;;;;;;;;;;5022042;28;20211;-66
2022/02/08 00:11:15;;;;;;;3.63;2.53;;;;;;;;;;5027819;28;20254;-66
2022/02/08 00:13:45;;;;;;;6.03;2.17;;;;;;;;;;5031560;28;20194;-66
2022/02/08 00:16:14;;;;;;;5.17;2.50;;;;;;;;;;5027843;28;20207;-66
2022/02/08 00:18:45;;;;;;;5.93;2.67;;;;;;;;;;5009403;28;20679;-66
2022/02/08 00:21:15;;;;;;;4.23;2.03;;;;;;;;;;5017104;28;20219;-66
2022/02/08 00:23:51;;;;;;;3.27;2.07;;;;;;;;;;5008679;28;20646;-66
2022/02/08 00:26:20;;;;;;;4.37;2.30;;;;;;;;;;5020991;28;20203;-66
2022/02/08 00:29:00;;;;;;;4.60;2.37;;;;;;;;;;5024523;28;20215;-66
2022/02/08 00:31:30;;;;;;;4.33;2.47;;;;;;;;;;5027178;28;20194;-66
2022/02/08 00:34:01;;;;;;;4.37;2.33;;;;;;;;;;5024739;28;20217;-66
2022/02/08 00:36:38;;;;;;;5.30;2.30;;;;;;;;;;5025968;28;20203;-66
2022/02/08 00:39:09;;;;;;;3.50;2.43;;;;;;;;;;5026429;28;20197;-66
2022/02/08 00:41:40;;;;;;;4.07;2.70;;;;;;;;;;5027015;28;20230;-66
2022/02/08 00:44:15;;;;;;;4.57;2.57;;;;;;;;;;5027758;28;20226;-66
2022/02/08 00:47:12;;;;;;;4.83;3.00;;;;;;;;;;5013592;28;20242;-66
2022/02/08 00:49:43;;;;;;;5.23;2.30;;;;;;;;;;5028628;28;20221;-66
2022/02/08 00:52:19;;;;;;;3.93;2.10;;;;;;;;;;5023604;28;20554;-66
2022/02/08 00:54:50;;;;;;;5.40;2.53;;;;;;;;;;5004599;28;20221;-66
2022/02/08 00:57:24;;;;;;;3.03;1.90;;;;;;;;;;5025969;28;20244;-66
2022/02/08 00:59:54;;;;;;;4.67;2.43;;;;;;;;;;5010341;28;20282;-66
2022/02/08 01:02:23;;;;;;;4.67;2.40;;;;;;;;;;5025565;28;20207;-66
2022/02/08 01:04:58;;;;;;;4.60;2.20;;;;;;;;;;5028308;28;20229;-66
2022/02/08 01:07:28;;;;;;;4.23;2.37;;;;;;;;;;5024220;28;20231;-66
2022/02/08 01:10:06;;;;;;;5.93;2.30;;;;;;;;;;5031651;28;20360;-66
2022/02/08 01:12:36;;;;;;;6.37;2.63;;;;;;;;;;5028599;28;20198;-66
2022/02/08 01:15:08;;;;;;;5.97;2.20;;;;;;;;;;5012404;28;20226;-66
2022/02/08 01:17:39;;;;;;;5.73;2.30;;;;;;;;;;5025000;28;20206;-66
2022/02/08 01:20:15;;;;;;;3.67;2.20;;;;;;;;;;5027643;28;20263;-66
2022/02/08 01:22:44;;;;;;;5.00;2.50;;;;;;;;;;5024697;28;20256;-66
2022/02/08 01:25:27;;;;;;;3.50;2.23;;;;;;;;;;5010195;28;20234;-66
2022/02/08 01:28:12;;;;;;;4.47;2.60;;;;;;;;;;5028452;28;20586;-66
2022/02/08 01:34:07;;;;;;;4.97;2.30;;;;;;;;;;5015370;28;20207;-66
2022/02/08 01:42:12;;;;;;;5.37;2.67;;;;;;;;;;5013274;28;20309;-65
2022/02/08 01:44:59;;;;;;;4.73;2.60;;;;;;;;;;5006964;28;20259;-65
2022/02/08 01:50:24;;;;;;;5.17;2.67;;;;;;;;;;5026122;28;20223;-65
2022/02/08 01:52:55;;;;;;;5.13;2.37;;;;;;;;;;5027423;28;20187;-66
2022/02/08 01:55:27;;;;;;;5.20;2.37;;;;;;;;;;4992852;28;20229;-66
2022/02/08 01:58:17;;;;;;;5.87;2.70;;;;;;;;;;5015179;28;20281;-66
2022/02/08 02:00:52;;;;;;;3.57;1.97;;;;;;;;;;5008077;28;20222;-66
2022/02/08 02:03:27;;;;;;;3.50;1.77;;;;;;;;;;5020718;28;20202;-66
2022/02/08 02:05:56;;;;;;;4.70;2.40;;;;;;;;;;5029789;28;20202;-66
2022/02/08 02:08:25;;;;;;;4.87;2.20;;;;;;;;;;5020998;28;20234;-66
2022/02/08 02:10:55;;;;;;;2.80;1.80;;;;;;;;;;5024194;28;20648;-66
2022/02/08 02:13:43;;;;;;;4.10;2.10;;;;;;;;;;5026780;28;20223;-65
2022/02/08 02:16:24;;;;;;;5.47;2.50;;;;;;;;;;5032793;28;20595;-65
2022/02/08 02:18:53;;;;;;;3.20;2.17;;;;;;;;;;5027630;28;20207;-66
2022/02/08 02:21:28;;;;;;;4.37;2.00;;;;;;;;;;5030840;28;20226;-65
2022/02/08 02:24:00;;;;;;;2.87;1.93;;;;;;;;;;5028875;28;20198;-65
2022/02/08 02:26:32;;;;;;;3.53;2.30;;;;;;;;;;5031318;28;20250;-65
2022/02/08 02:29:03;;;;;;;4.80;2.17;;;;;;;;;;5027303;28;20223;-65
2022/02/08 02:31:54;;;;;;;4.47;2.20;;;;;;;;;;5027125;28;20656;-65
2022/02/08 02:35:03;;;;;;;3.80;2.10;;;;;;;;;;5013014;28;20215;-65
2022/02/08 02:37:54;;;;;;;3.53;2.10;;;;;;;;;;5010184;28;20194;-65
2022/02/08 02:40:31;;;;;;;4.53;2.17;;;;;;;;;;5028511;28;20200;-65
2022/02/08 02:43:02;;;;;;;4.87;2.07;;;;;;;;;;5025709;28;20199;-65
2022/02/08 02:45:40;;;;;;;3.07;2.13;;;;;;;;;;5033471;28;20214;-65
2022/02/08 02:48:15;;;;;;;4.47;2.03;;;;;;;;;;5028711;28;20214;-65
2022/02/08 02:50:56;;;;;;;4.27;2.13;;;;;;;;;;5028323;28;20222;-65
2022/02/08 02:53:30;;;;;;;4.30;1.97;;;;;;;;;;5029283;28;20218;-65
2022/02/08 02:55:59;;;;;;;3.53;2.07;;;;;;;;;;5030246;28;20206;-66
2022/02/08 02:58:37;;;;;;;3.30;1.80;;;;;;;;;;5026982;28;20217;-65
2022/02/08 03:20:49;;;;;;;3.17;1.60;;;;;;;;;;5030236;28;20256;-66
2022/02/08 03:23:20;;;;;;;2.80;1.87;;;;;;;;;;5033981;28;20199;-65
2022/02/08 03:25:51;;;;;;;3.30;2.07;;;;;;;;;;5029517;28;20537;-65
2022/02/08 03:28:18;;;;;;;3.07;1.50;;;;;;;;;;5030886;28;20203;-65
2022/02/08 03:30:48;;;;;;;4.47;2.00;;;;;;;;;;5025838;28;20252;-65
2022/02/08 03:33:17;;;;;;;3.43;1.60;;;;;;;;;;5011462;28;20214;-66
2022/02/08 03:35:50;;;;;;;3.10;1.90;;;;;;;;;;5022255;28;20215;-66
2022/02/08 03:38:24;;;;;;;3.43;1.97;;;;;;;;;;5020604;28;20259;-66
2022/02/08 03:41:02;;;;;;;3.57;1.80;;;;;;;;;;5010894;28;20637;-66
2022/02/08 03:43:36;;;;;;;3.23;1.73;;;;;;;;;;5027115;28;20264;-66
2022/02/08 03:46:23;;;;;;;4.67;2.00;;;;;;;;;;5025277;28;20276;-65
2022/02/08 03:48:54;;;;;;;3.60;1.70;;;;;;;;;;5019623;28;20269;-65
2022/02/08 03:51:29;;;;;;;2.87;1.83;;;;;;;;;;5028323;28;20195;-65
2022/02/08 03:54:01;;;;;;;3.47;1.67;;;;;;;;;;5027655;28;20628;-65
2022/02/08 03:56:33;;;;;;;3.77;2.03;;;;;;;;;;5025373;28;20549;-65
2022/02/08 03:59:03;;;;;;;3.00;1.70;;;;;;;;;;5023661;28;20219;-66
2022/02/08 04:02:03;;;;;;;3.60;1.77;;;;;;;;;;5030145;28;20235;-66
2022/02/08 04:04:49;;;;;;;4.00;1.90;;;;;;;;;;5031178;28;20234;-66
2022/02/08 04:07:35;;;;;;;2.70;1.73;;;;;;;;;;5029225;28;20300;-65
2022/02/08 04:10:14;;;;;;;3.83;2.00;;;;;;;;;;5025403;28;20253;-66
2022/02/08 04:35:35;;;;;;;2.37;1.80;;;;;;;;;;5023720;28;20233;-66
2022/02/08 04:38:25;;;;;;;3.33;1.73;;;;;;;;;;5025515;28;20195;-66
2022/02/08 04:41:05;;;;;;;2.07;1.50;;;;;;;;;;5026584;28;20209;-66
2022/02/08 04:43:45;;;;;;;3.00;1.50;;;;;;;;;;5024629;28;20195;-66
2022/02/08 04:49:30;;;;;;;2.07;1.30;;;;;;;;;;4986272;28;20730;-67
2022/02/08 04:52:04;;;;;;;2.70;1.40;;;;;;;;;;5026148;28;20202;-66
2022/02/08 04:54:56;;;;;;;3.33;1.70;;;;;;;;;;5022437;28;20240;-66
2022/02/08 04:58:11;;;;;;;2.47;1.40;;;;;;;;;;5021675;28;20199;-66
2022/02/08 05:00:34;;;;;;;3.07;1.20;;;;;;;;;;5027544;28;20211;-66
2022/02/08 05:34:56;;;;;;;2.13;1.47;;;;;;;;;;5028621;28;20200;-65
2022/02/08 05:43:19;;;;;;;1.90;0.90;;;;;;;;;;5023923;28;20227;-66
2022/02/08 05:46:37;;;;;;;1.50;1.20;;;;;;;;;;5030889;28;20214;-65
2022/02/08 05:49:04;;;;;;;1.70;1.03;;;;;;;;;;5023842;28;20211;-65
2022/02/08 05:54:22;;;;;;;2.33;1.50;;;;;;;;;;5028997;28;20248;-65
2022/02/08 05:56:54;;;;;;;1.47;1.00;;;;;;;;;;5023948;28;20249;-65
2022/02/08 05:59:24;;;;;;;1.67;1.00;;;;;;;;;;5021460;28;20212;-65
2022/02/08 06:01:55;;;;;;;2.07;1.37;;;;;;;;;;5031352;28;20214;-65
2022/02/08 06:04:27;;;;;;;1.97;1.07;;;;;;;;;;5029367;28;20226;-65
2022/02/08 06:06:59;;;;;;;2.20;1.50;;;;;;;;;;5014415;28;20243;-65
2022/02/08 06:09:26;;;;;;;1.70;1.30;;;;;;;;;;4989734;28;20231;-64
2022/02/08 06:11:55;;;;;;;1.27;0.90;;;;;;;;;;5011744;28;20556;-65
2022/02/08 06:14:28;;;;;;;2.03;1.07;;;;;;;;;;4994635;28;20205;-65
2022/02/08 06:16:56;;;;;;;1.20;1.00;;;;;;;;;;5014641;28;20191;-65
2022/02/08 06:19:27;;;;;;;1.60;1.43;;;;;;;;;;5010070;28;20210;-65
2022/02/08 06:21:55;;;;;;;1.20;1.07;;;;;;;;;;4992809;28;20231;-64
2022/02/08 06:24:30;;;;;;;1.00;0.90;;;;;;;;;;5011088;28;20195;-65
2022/02/08 06:27:03;;;;;;;1.50;1.17;;;;;;;;;;5009691;28;20266;-68
2022/02/08 06:29:39;;;;;;;1.80;1.27;;;;;;;;;;5016857;28;20208;-65
2022/02/08 06:32:08;;;;;;;1.63;1.20;;;;;;;;;;4997679;28;20523;-65
2022/02/08 06:34:55;;;;;;;1.97;1.17;;;;;;;;;;5007066;28;20207;-65
2022/02/08 06:37:36;;;;;;;1.10;1.00;;;;;;;;;;5012133;28;20210;-65
2022/02/08 06:40:10;;;;;;;1.63;1.40;;;;;;;;;;5008263;28;20269;-65
2022/02/08 06:42:44;;;;;;;1.80;1.33;;;;;;;;;;5020111;28;20234;-65
2022/02/08 06:45:27;;;;;;;2.43;1.27;;;;;;;;;;4989189;28;20222;-65
2022/02/08 06:48:00;;;;;;;1.40;1.13;;;;;;;;;;5004676;28;20226;-65
2022/02/08 06:50:49;;;;;;;1.80;1.40;;;;;;;;;;4999986;28;20219;-64
2022/02/08 06:53:33;;;;;;;1.20;1.10;;;;;;;;;;5009971;28;20227;-64
2022/02/08 06:56:04;;;;;;;1.70;1.33;;;;;;;;;;5021652;28;20252;-64
2022/02/08 06:58:52;;;;;;;1.10;1.00;;;;;;;;;;5003372;28;20278;-64
2022/02/08 07:01:30;;;;;;;2.87;1.00;;;;;;;;;;5014981;28;20211;-65
2022/02/08 07:04:14;;;;;;;1.93;1.30;;;;;;;;;;5008244;28;20207;-65
2022/02/08 07:06:54;;;;;;;1.47;1.20;;;;;;;;;;4998044;28;20246;-64
2022/02/08 07:09:24;;;;;;;2.87;1.07;;;;;;;;;;5009711;28;20237;-64
2022/02/08 07:12:08;;;;;;;1.40;0.90;;;;;;;;;;5029240;28;20300;-64
2022/02/08 07:14:51;;;;;;;1.37;1.07;;;;;;;;;;5028216;28;20762;-64
2022/02/08 07:17:19;;;;;;;1.43;1.00;;;;;;;;;;5030737;28;20277;-63
2022/02/08 07:19:52;;;;;;;1.50;1.10;;;;;;;;;;5010407;28;20273;-64
2022/02/08 07:22:25;;;;;;;1.13;1.03;;;;;;;;;;5026814;28;20222;-64
2022/02/08 07:24:58;;;;;;;1.73;1.17;;;;;;;;;;5021865;28;20206;-63
2022/02/08 07:27:29;;;;;;;2.13;1.20;;;;;;;;;;5004170;28;20199;-64
2022/02/08 07:30:07;;;;;;;2.40;1.30;;;;;;;;;;5028192;28;20213;-65
2022/02/08 07:32:39;;;;;;;10.17;3.47;;;;;;;;;;5026377;28;20201;-65
2022/02/08 07:35:28;;;;;;;40.78;9.00;;;;;;;;;;5015894;28;21124;-65
2022/02/08 07:42:58;;;;;;;19.23;6.57;;;;;;;;;;5029139;28;20203;-67
2022/02/08 07:45:28;;;;;;;14.97;5.17;;;;;;;;;;5028282;28;20223;-68
2022/02/08 07:47:58;;;;;;;19.07;6.00;;;;;;;;;;5027395;28;20298;-68
2022/02/08 07:50:31;;;;;;;18.20;5.70;;;;;;;;;;5026873;28;20881;-69
2022/02/08 07:53:05;;;;;;;14.83;5.30;;;;;;;;;;5025997;28;20218;-68
2022/02/08 07:55:39;;;;;;;15.53;5.53;;;;;;;;;;5024576;28;20208;-68
2022/02/08 07:58:12;;;;;;;16.83;5.40;;;;;;;;;;5023345;28;20215;-68
2022/02/08 08:00:47;;;;;;;15.63;5.30;;;;;;;;;;5033521;28;20184;-68
2022/02/08 08:03:19;;;;;;;15.77;5.53;;;;;;;;;;5011282;28;20539;-67
2022/02/08 08:05:54;;;;;;;13.97;4.93;;;;;;;;;;5030667;28;20710;-68
2022/02/08 08:08:26;;;;;;;12.57;4.40;;;;;;;;;;5034941;28;20237;-68
2022/02/08 08:10:59;;;;;;;11.23;4.27;;;;;;;;;;5035449;28;20755;-70
2022/02/08 08:13:37;;;;;;;10.50;4.07;;;;;;;;;;5045897;28;20213;-69
2022/02/08 08:19:07;;;;;;;8.60;4.00;;;;;;;;;;5045143;28;20198;-68
2022/02/08 08:21:42;;;;;;;8.77;4.23;;;;;;;;;;5043575;28;20202;-65
2022/02/08 08:24:19;;;;;;;9.40;4.00;;;;;;;;;;5028682;28;20643;-65
2022/02/08 08:26:51;;;;;;;6.63;3.50;;;;;;;;;;5047054;28;20213;-66
2022/02/08 08:29:21;;;;;;;10.00;3.67;;;;;;;;;;5049951;28;20202;-66
2022/02/08 08:31:52;;;;;;;6.17;3.03;;;;;;;;;;5045995;28;20203;-68
2022/02/08 08:34:20;;;;;;;6.20;3.37;;;;;;;;;;5043938;28;20264;-66
2022/02/08 08:36:52;;;;;;;7.17;3.37;;;;;;;;;;5044353;28;20209;-66
2022/02/08 08:39:28;;;;;;;5.37;2.73;;;;;;;;;;5045171;28;20206;-66
2022/02/08 08:42:23;;;;;;;8.37;3.10;;;;;;;;;;5018770;28;20206;-66
2022/02/08 08:48:31;;;;;;;4.17;2.40;;;;;;;;;;5032885;28;20214;-67
2022/02/08 08:51:31;;;;;;;6.93;2.43;;;;;;;;;;5046522;28;20212;-67
2022/02/08 08:54:08;;;;;;;4.07;2.57;;;;;;;;;;5048885;28;20260;-68
2022/02/08 08:56:52;;;;;;;6.17;2.30;;;;;;;;;;5041522;28;20206;-66
2022/02/08 08:59:26;;;;;;;4.03;2.73;;;;;;;;;;5038740;28;20264;-66
2022/02/08 09:02:02;;;;;;;5.23;2.80;;;;;;;;;;5048538;28;20256;-65
2022/02/08 09:04:39;;;;;;;6.80;2.50;;;;;;;;;;5029199;28;20616;-65
2022/02/08 09:07:13;;;;;;;6.57;2.47;;;;;;;;;;5040257;28;21768;-65
2022/02/08 09:09:45;;;;;;;4.77;2.30;;;;;;;;;;4990409;28;20222;-69
2022/02/08 09:12:38;;;;;;;5.07;2.33;;;;;;;;;;5024241;28;20223;-65
2022/02/08 09:31:07;;;;;;;3.03;2.10;;;;;;;;;;5028033;28;20985;-65
2022/02/08 09:33:51;;;;;;;4.27;2.10;;;20.20;56.30;;;;;;5013107;28;20320;-65
2022/02/08 09:36:31;;;;;;;7.00;2.40;;;20.20;56.70;;;;;;5014078;28;20214;-64
2022/02/08 09:39:04;;;;;;;2.90;2.00;;;20.20;56.80;;;;;;5010523;28;20195;-65
2022/02/08 09:41:47;;;;;;;3.30;1.53;;;;;;;;;;5026861;28;20686;-66
2022/02/08 09:44:18;;;;;;;4.67;1.90;;;20.30;56.60;;;;;;5028950;28;20215;-67
2022/02/08 09:46:49;;;;;;;2.63;1.80;;;20.20;56.70;;;;;;5018505;28;20215;-67
2022/02/08 09:49:20;;;;;;;2.07;1.60;;;20.30;56.50;;;;;;5012330;28;20602;-66
2022/02/08 09:51:52;;;;;;;3.97;1.67;;;20.30;56.60;;;;;;5030747;28;20283;-67
2022/02/08 09:54:24;;;;;;;2.27;1.50;;;20.20;56.60;;;;;;5025808;28;20286;-68
2022/02/08 09:56:55;;;;;;;2.83;1.60;;;20.20;56.60;;;;;;5004721;28;20203;-68
2022/02/08 09:59:24;;;;;;;2.57;1.83;;;20.20;56.60;;;;;;5031005;28;20226;-68
2022/02/08 10:02:09;;;;;;;2.93;1.60;;;;;;;;;;5026566;28;20207;-67
2022/02/08 10:04:47;;;;;;;3.03;1.70;;;20.20;56.50;;;;;;5013232;28;20194;-66
2022/02/08 10:07:19;;;;;;;2.27;1.60;;;20.20;57.20;;;;;;5035579;28;20214;-68
2022/02/08 10:09:53;;;;;;;2.67;1.37;;;20.20;57.10;;;;;;5049927;28;20279;-66
2022/02/08 10:12:31;;;;;;;2.60;1.50;;;20.20;57.20;;;;;;5052527;28;20222;-70
2022/02/08 10:23:40;;;;;;;4.20;1.27;;;20.20;56.80;;;;;;5046254;28;20209;-68
2022/02/08 10:26:20;;;;;;;2.87;1.30;;;20.30;57.40;;;;;;5047548;28;20198;-69
2022/02/08 10:29:07;;;;;;;2.30;1.30;;;20.30;57.30;;;;;;5043857;28;20210;-68
2022/02/08 10:40:30;;;;;;;4.03;1.30;;;20.30;57.10;;;;;;5031359;28;20210;-69
2022/02/08 10:43:04;;;;;;;3.10;1.27;;;20.30;57.20;;;;;;5053961;28;20214;-70
2022/02/08 10:45:38;;;;;;;3.93;1.50;;;20.30;57.20;;;;;;5009831;28;20230;-68
2022/02/08 10:48:22;;;;;;;2.53;1.10;;;20.40;57.30;;;;;;5037543;28;20214;-65
2022/02/08 10:50:58;;;;;;;2.67;1.20;;;20.30;57.20;;;;;;5013498;28;20231;-67
2022/02/08 10:53:40;;;;;;;2.20;1.23;;;;;;;;;;5045533;28;20627;-69
2022/02/08 10:56:12;;;;;;;3.43;1.40;;;;;;;;;;5031418;28;20226;-68
2022/02/08 10:58:53;;;;;;;2.67;0.80;;;;;;;;;;5044059;28;20257;-67
2022/02/08 11:01:31;;;;;;;2.33;1.20;;;;;;;;;;5038822;28;20198;-68
2022/02/08 11:04:18;;;;;;;1.80;1.20;;;;;;;;;;5046388;28;20206;-63
2022/02/08 11:07:08;;;;;;;4.40;1.40;;;;;;;;;;5031795;28;20206;-63
2022/02/08 11:09:54;;;;;;;2.43;1.47;;;;;;;;;;5044534;28;20242;-63
2022/02/08 11:12:38;;;;;;;3.57;1.40;;;;;;;;;;5045741;28;20226;-64
2022/02/08 11:15:46;;;;;;;1.77;1.20;;;;;;;;;;5067660;28;20211;-63
2022/02/08 11:21:37;;;;;;;1.93;1.27;;;;;;;;;;5054885;28;20244;-63
2022/02/08 11:24:25;;;;;;;3.03;1.40;;;;;;;;;;5051991;28;20221;-63
2022/02/08 11:27:07;;;;;;;3.80;1.47;;;;;;;;;;5062785;28;20201;-64
2022/02/08 11:29:50;;;;;;;1.77;0.90;;;;;;;;;;5066298;28;20688;-65
2022/02/08 11:33:06;;;;;;;1.40;1.13;;;;;;;;;;5060491;28;20210;-64
2022/02/08 11:44:35;;;;;;;1.50;1.20;;;;;;;;;;5057171;28;20220;-64
2022/02/08 11:58:10;;;;;;;3.47;1.23;;;;;;;;;;5063848;28;20222;-64
2022/02/08 12:00:57;;;;;;;3.53;1.20;;;;;;;;;;5060937;28;20196;-64
2022/02/08 12:04:10;;;;;;;2.67;1.10;;;;;;;;;;5066816;28;20284;-65
2022/02/08 12:09:55;;;;;;;2.30;1.20;;;;;;;;;;5053792;28;20649;-64
2022/02/08 12:33:14;;;;;;;3.73;1.60;;;;;;;;;;5035605;28;20207;-63
2022/02/08 12:55:54;;;;;;;2.50;1.47;;;;;;;;;;5042408;28;20201;-66
2022/02/08 13:17:16;;;;;;;1.30;1.00;;;;;;;;;;5044063;28;20201;-68
2022/02/08 14:08:09;;;;;;;2.60;1.00;;;;;;;;;;5014794;28;20235;-66
2022/02/08 14:19:29;;;;;;;3.43;1.23;;;;;;;;;;5025518;28;20202;-66
2022/02/08 14:30:46;;;;;;;1.30;0.90;;;;;;;;;;5049095;28;20204;-65
2022/02/08 15:05:28;;;;;;;1.23;0.80;;;;;;;;;;5047591;28;20279;-64
2022/02/08 15:10:48;;;;;;;1.90;1.00;;;;;;;;;;5071917;28;20217;-67
2022/02/08 15:13:26;;;;;;;1.93;0.93;;;;;;;;;;5039887;28;20218;-67
2022/02/08 15:19:17;;;;;;;1.63;0.80;;;;;;;;;;5035449;28;20296;-68
2022/02/08 15:21:53;;;;;;;2.40;1.03;;;;;;;;;;5062658;28;20210;-67
2022/02/08 15:24:24;;;;;;;1.57;1.00;;;;;;;;;;5064870;28;20209;-68
2022/02/08 15:26:54;;;;;;;2.40;1.10;;;;;;;;;;5062161;28;20201;-69
2022/02/08 15:29:26;;;;;;;1.00;0.90;;;;;;;;;;5065816;28;20196;-69
2022/02/08 15:32:01;;;;;;;2.23;1.10;;;;;;;;;;5072213;28;20550;-65
2022/02/08 15:34:48;;;;;;;2.10;0.90;;;;;;;;;;5063543;28;20741;-66
2022/02/08 15:37:18;;;;;;;1.03;0.77;;;;;;;;;;5064629;28;20194;-66
2022/02/08 15:39:50;;;;;;;1.77;0.97;;;;;;;;;;5051937;28;20205;-66
2022/02/08 15:42:28;;;;;;;2.87;1.20;;;;;;;;;;5065192;28;20209;-67
2022/02/08 15:45:02;;;;;;;4.10;1.00;;;;;;;;;;5057719;28;20217;-69
2022/02/08 15:47:43;;;;;;;3.53;1.40;;;;;;;;;;5058618;28;20203;-68
2022/02/08 15:50:22;;;;;;;2.67;1.20;;;;;;;;;;5074558;28;20753;-70
2022/02/08 15:53:23;;;;;;;2.03;1.35;;;;;;;;;;5073132;28;20439;-68
2022/02/08 16:05:07;;;;;;;3.70;1.27;;;;;;;;;;5055527;28;20197;-70
2022/02/08 16:07:13;;;;;;;1.93;1.00;;;;;;;;;;5059070;28;20662;-68
2022/02/08 16:15:34;;;;;;;1.30;0.80;;;;;;;;;;5059120;28;20611;-68
2022/02/08 16:18:20;;;;;;;1.90;1.10;;;;;;;;;;5063104;28;20189;-68
2022/02/08 16:29:51;;;;;;;2.30;1.10;;;;;;;;;;5063127;28;20221;-69
2022/02/08 17:00:35;;;;;;;2.63;1.40;;;;;;;;;;5050810;28;20237;-66
2022/02/08 17:03:23;;;;;;;2.57;1.53;;;;;;;;;;5064047;28;20449;-71
2022/02/08 17:05:55;;;;;;;3.60;1.60;;;;;;;;;;5067221;28;20201;-68
2022/02/08 17:08:29;;;;;;;2.27;1.43;;;;;;;;;;5061448;28;20242;-68
2022/02/08 17:11:01;;;;;;;1.70;1.37;;;;;;;;;;5061141;28;20631;-64
2022/02/08 17:14:48;;;;;;;2.53;1.53;;;;;;;;;;5065096;28;20235;-66
2022/02/08 17:16:46;;;;;;;3.17;1.70;;;;;;;;;;5050594;28;20538;-66
2022/02/08 17:19:45;;;;;;;2.77;1.67;;;;;;;;;;5061224;28;20209;-66
2022/02/08 17:47:44;;;;;;;2.77;2.13;;;;;;;;;;5061238;28;20206;-66
2022/02/08 17:50:18;;;;;;;2.53;1.83;;;;;;;;;;5060354;28;20216;-66
2022/02/08 17:52:52;;;;;;;2.00;1.63;;;;;;;;;;5063871;28;20275;-66
2022/02/08 17:55:26;;;;;;;2.60;1.73;;;;;;;;;;5050246;28;20202;-66
2022/02/08 17:57:58;;;;;;;4.10;1.77;;;;;;;;;;5042919;28;20194;-65
2022/02/08 18:00:28;;;;;;;3.63;1.80;;;;;;;;;;5067038;28;20232;-66
2022/02/08 18:03:02;;;;;;;2.50;1.63;;;;;;;;;;5047565;28;20632;-66
2022/02/08 18:05:48;;;;;;;2.80;1.80;;;;;;;;;;5048656;28;20279;-66
2022/02/08 18:08:35;;;;;;;3.23;2.07;;;;;;;;;;5065355;28;20237;-66
2022/02/08 18:11:11;;;;;;;2.77;1.53;;;;;;;;;;5063976;28;20236;-66
2022/02/08 18:13:45;;;;;;;3.13;2.00;;;;;;;;;;5066187;28;20210;-67
2022/02/08 18:16:21;;;;;;;2.83;1.80;;;;;;;;;;5047654;28;20658;-66
2022/02/08 18:19:09;;;;;;;2.47;1.60;;;;;;;;;;5044879;28;20215;-66
2022/02/08 18:21:53;;;;;;;2.38;2.05;;;;;;;;;;5059093;28;20544;-68
2022/02/08 18:24:53;;;;;;;3.40;1.90;;;;;;;;;;5051605;28;20206;-67
2022/02/08 18:28:07;;;;;;;3.13;1.80;;;;;;;;;;5060956;28;20221;-67
2022/02/08 18:57:06;;;;;;;2.00;1.80;;;;;;;;;;5062505;28;20185;-68
2022/02/08 19:07:19;;;;;;;4.57;2.00;;;;;;;;;;5064333;28;20196;-67
2022/02/08 19:18:31;;;;;;;4.03;1.60;;;;;;;;;;5047705;28;20209;-71
2022/02/08 19:24:00;;;;;;;4.70;1.60;;;;;;;;;;5041398;28;20205;-66
2022/02/08 19:26:30;;;;;;;3.43;2.00;;;;;;;;;;5028379;28;20281;-66
2022/02/08 19:29:04;;;;;;;2.13;1.40;;;;;;;;;;5033300;28;20210;-66
2022/02/08 19:31:35;;;;;;;2.33;1.40;;;;;;;;;;5045665;28;20213;-66
2022/02/08 19:34:10;;;;;;;3.90;1.60;;;;;;;;;;5041333;28;20592;-66
2022/02/08 19:36:45;;;;;;;2.80;1.33;;;;;;;;;;5051168;28;20194;-66
2022/02/08 19:39:18;;;;;;;3.23;1.50;;;;;;;;;;5028028;28;20707;-66
2022/02/08 19:41:54;;;;;;;2.30;1.20;;;;;;;;;;5044810;28;20203;-66
2022/02/08 19:44:37;;;;;;;3.00;1.47;;;;;;;;;;5044393;28;20205;-66
2022/02/08 19:47:21;;;;;;;1.20;1.10;;;;;;;;;;5053978;28;20189;-66
2022/02/08 19:49:54;;;;;;;2.07;1.43;;;;;;;;;;5043562;28;20203;-65
2022/02/08 19:52:31;;;;;;;1.90;1.37;;;;;;;;;;5039460;28;20199;-66
2022/02/08 19:57:48;;;;;;;1.23;1.13;;;;;;;;;;5034533;28;20214;-66
2022/02/08 20:00:30;;;;;;;2.73;1.47;;;;;;;;;;5032909;28;20203;-65
2022/02/08 20:03:03;;;;;;;1.70;1.33;;;;;;;;;;5044754;28;20619;-66
2022/02/08 20:05:33;;;;;;;3.70;1.47;;;;;;;;;;5041532;28;20776;-66
2022/02/08 20:08:05;;;;;;;3.83;1.70;;;;;;;;;;5041004;28;20226;-66
2022/02/08 20:10:37;;;;;;;4.03;1.37;;;;;;;;;;5015976;28;20204;-65
2022/02/08 20:13:17;;;;;;;4.53;1.50;;;;;;;;;;5021208;28;20288;-65
2022/02/08 20:15:47;;;;;;;4.70;1.77;;;;;;;;;;5021761;28;20191;-65
2022/02/08 20:18:16;;;;;;;4.10;1.73;;;;;;;;;;5007745;28;20195;-65
2022/02/08 20:20:47;;;;;;;2.53;1.43;;;;;;;;;;5023932;28;20207;-65
2022/02/08 20:23:22;;;;;;;3.43;1.43;;;;;;;;;;5017126;28;20223;-65
2022/02/08 20:26:03;;;;;;;3.73;1.57;;;;;;;;;;5023838;28;20218;-65
2022/02/08 20:28:50;;;;;;;3.22;1.60;;;;;;;;;;5019608;28;20807;-71
2022/02/08 20:31:20;;;;;;;5.43;1.50;;;;;;;;;;5003247;28;20206;-69
2022/02/08 20:33:52;;;;;;;6.83;1.30;;;;;;;;;;5023837;28;20250;-70
2022/02/08 20:36:27;;;;;;;5.63;1.50;;;;;;;;;;5011714;28;20216;-70
2022/02/08 20:39:12;;;;;;;4.93;1.30;;;;;;;;;;5019157;28;20298;-71
2022/02/08 20:41:44;;;;;;;1.73;1.13;;;;;;;;;;5012033;28;20230;-70
2022/02/08 20:44:17;;;;;;;1.53;1.40;;;;;;;;;;5036281;28;20195;-71
2022/02/08 20:47:06;;;;;;;1.63;1.00;;;;;;;;;;5010875;28;20243;-73
2022/02/08 20:49:37;;;;;;;2.43;1.27;;;;;;;;;;5027190;28;20195;-73
2022/02/08 20:52:09;;;;;;;2.50;1.23;;;;;;;;;;5018202;28;20233;-69
2022/02/08 20:54:49;;;;;;;1.60;1.13;;;;;;;;;;5021719;28;20229;-73
2022/02/08 20:57:35;;;;;;;1.00;0.90;;;;;;;;;;5025454;28;20223;-75
2022/02/08 21:00:13;;;;;;;2.00;1.00;;;;;;;;;;5024638;28;20191;-73
2022/02/08 21:02:55;;;;;;;2.20;1.20;;;;;;;;;;5010073;28;20213;-71
2022/02/08 21:07:58;;;;;;;1.37;0.90;;;;;;;;;;5027465;28;20195;-73
2022/02/08 21:10:34;;;;;;;3.03;0.93;;;;;;;;;;5040876;28;20293;-71
2022/02/08 21:13:16;;;;;;;2.63;1.00;;;;;;;;;;5029000;28;20271;-69
2022/02/08 21:15:48;;;;;;;4.33;1.17;;;;;;;;;;5048037;28;20573;-74
2022/02/08 21:18:18;;;;;;;2.10;1.10;;;;;;;;;;5027108;28;20198;-73
2022/02/08 21:20:49;;;;;;;2.87;1.17;;;;;;;;;;5045613;28;20272;-67
2022/02/08 21:23:20;;;;;;;1.97;0.87;;;;;;;;;;5039364;28;20203;-67
2022/02/08 21:25:54;;;;;;;1.50;0.80;;;;;;;;;;5031291;28;20237;-66
2022/02/08 21:29:09;;;;;;;3.87;1.10;;;;;;;;;;5025527;28;20191;-66
2022/02/08 21:47:50;;;;;;;2.00;1.07;;;;;;;;;;5049611;28;20263;-67
2022/02/08 21:53:10;;;;;;;1.23;1.10;;;;;;;;;;5033215;28;20707;-68
2022/02/08 21:55:42;;;;;;;2.30;1.10;;;;;;;;;;5040316;28;20198;-67
2022/02/08 21:58:12;;;;;;;3.40;1.27;;;;;;;;;;5040485;28;20884;-67
2022/02/08 22:00:46;;;;;;;1.37;1.20;;;;;;;;;;5037950;28;20230;-66
2022/02/08 22:03:17;;;;;;;1.00;1.00;;;;;;;;;;5046504;28;20218;-66
2022/02/08 22:05:49;;;;;;;2.30;0.93;;;;;;;;;;5028282;28;20202;-67
2022/02/08 22:08:40;;;;;;;2.20;1.20;;;;;;;;;;5033918;28;20227;-71
2022/02/08 22:22:44;;;;;;;3.07;1.13;;;;;;;;;;5039072;28;20272;-71
2022/02/08 22:26:08;;;;;;;2.80;1.20;;;;;;;;;;5040495;28;20217;-71
2022/02/08 22:28:28;;;;;;;3.07;1.20;;;;;;;;;;5049897;28;20267;-75
2022/02/08 22:31:02;;;;;;;1.17;0.90;;;;;;;;;;5043821;28;21078;-64
2022/02/08 22:33:45;;;;;;;1.93;1.07;;;;;;;;;;5036621;28;20234;-64
2022/02/08 22:36:24;;;;;;;1.93;0.90;;;;;;;;;;5034902;28;20198;-64
2022/02/08 22:39:13;;;;;;;2.70;1.27;;;;;;;;;;5044778;28;20283;-63
2022/02/08 22:42:04;;;;;;;3.20;1.00;;;;;;;;;;5046475;28;20199;-64
2022/02/08 22:44:51;;;;;;;2.30;1.10;;;;;;;;;;5047465;28;20209;-64
2022/02/08 22:47:21;;;;;;;1.77;0.90;;;;;;;;;;5037655;28;20214;-64
2022/02/08 22:49:55;;;;;;;2.10;0.83;;;;;;;;;;5038503;28;20605;-63
2022/02/08 22:52:26;;;;;;;2.33;1.07;;;;;;;;;;5048201;28;20795;-64
2022/02/08 22:54:59;;;;;;;1.47;1.03;;;;;;;;;;5043442;28;20224;-63
2022/02/08 22:57:30;;;;;;;5.17;0.83;;;;;;;;;;5039613;28;20211;-63
2022/02/08 23:00:01;;;;;;;1.23;0.83;;;;;;;;;;5042957;28;20245;-63
2022/02/08 23:02:38;;;;;;;1.37;0.97;;;;;;;;;;5040773;28;20708;-63
2022/02/08 23:05:17;;;;;;;1.70;1.10;;;;;;;;;;5042714;28;20198;-63
2022/02/08 23:07:49;;;;;;;1.73;0.90;;;;;;;;;;5039605;28;20198;-63
2022/02/08 23:10:26;;;;;;;0.80;0.80;;;;;;;;;;5022541;28;20218;-62
2022/02/08 23:12:59;;;;;;;1.80;1.03;;;;;;;;;;5021498;28;20963;-63
2022/02/08 23:16:27;;;;;;;1.30;0.70;;;;;;;;;;5027150;28;20309;-63
2022/02/08 23:38:08;;;;;;;1.03;0.80;;;;;;;;;;5025183;28;20976;-63
2022/02/08 23:40:35;;;;;;;1.20;0.80;;;;;;;;;;5022082;28;20814;-63
2022/02/08 23:43:05;;;;;;;2.50;1.13;;;;;;;;;;5025793;28;20245;-63
2022/02/08 23:45:37;;;;;;;1.70;0.80;;;;;;;;;;5023715;28;20218;-63
2022/02/08 23:48:17;;;;;;;1.87;0.80;;;;;;;;;;5023041;28;20276;-62
2022/02/08 23:50:54;;;;;;;0.93;0.73;;;;;;;;;;5023465;28;20202;-63
2022/02/08 23:53:42;;;;;;;0.80;0.80;;;;;;;;;;5020914;28;20182;-63
2022/02/08 23:56:15;;;;;;;1.53;0.90;;;;;;;;;;5022396;28;20551;-62
2022/02/08 23:58:50;;;;;;;0.83;0.67;;;;;;;;;;5003903;28;20233;-63
